Time;durP1;ratioP1;P1;durP2;ratioP2;P2;SDS_P1;SDS_P2;PMS_P1;PMS_P2;Temp;Humidity;BMP_temperature;BMP_pressure;BME280_temperature;BME280_humidity;BME280_pressure;Samples;Min_cycle;Max_cycle;Signal;HPM_P1;HPM_P2
2022/07/17 00:01:17;;;;;;;0.10;0.10;;;;;;;;;;5030804;28;20080;-63
2022/07/17 00:03:45;;;;;;;0.00;0.00;;;;;;;;;;5009119;28;20025;-63
2022/07/17 00:06:11;;;;;;;0.00;0.00;;;;;;;;;;5029999;28;20057;-62
2022/07/17 00:08:36;;;;;;;0.38;0.38;;;;;;;;;;5035553;28;20773;-62
2022/07/17 00:11:01;;;;;;;0.47;0.47;;;;;;;;;;5037049;28;20037;-68
2022/07/17 00:13:27;;;;;;;0.00;0.00;;;;;;;;;;5027599;28;20033;-68
2022/07/17 00:15:52;;;;;;;0.08;0.08;;;;;;;;;;5024421;28;20033;-67
2022/07/17 00:18:17;;;;;;;0.00;0.00;;;;;;;;;;5032512;28;20029;-69
2022/07/17 00:20:45;;;;;;;0.00;0.00;;;;;;;;;;5030156;28;20051;-70
2022/07/17 00:23:11;;;;;;;0.00;0.00;;;;;;;;;;5039431;28;20017;-70
2022/07/17 00:25:36;;;;;;;0.00;0.00;;;;;;;;;;5034124;28;20087;-71
2022/07/17 00:28:02;;;;;;;0.00;0.00;;;;;;;;;;5036302;28;20411;-70
2022/07/17 00:30:27;;;;;;;0.00;0.00;;;;;;;;;;5032792;28;20055;-72
2022/07/17 00:32:52;;;;;;;0.00;0.00;;;;;;;;;;5035677;28;20029;-71
2022/07/17 00:35:18;;;;;;;0.00;0.00;;;;;;;;;;5032578;28;20052;-70
2022/07/17 00:37:45;;;;;;;0.00;0.00;;;;;;;;;;5033343;28;20485;-70
2022/07/17 00:40:11;;;;;;;0.00;0.00;;;;;;;;;;5036015;28;20401;-69
2022/07/17 00:42:40;;;;;;;0.28;0.28;;;;;;;;;;5032657;28;20017;-62
2022/07/17 00:45:07;;;;;;;0.00;0.00;;;;;;;;;;5033471;28;20078;-64
2022/07/17 00:47:32;;;;;;;0.00;0.00;;;;;;;;;;5032088;28;20151;-66
2022/07/17 00:49:57;;;;;;;0.00;0.00;;;;;;;;;;5031951;28;20484;-66
2022/07/17 00:52:22;;;;;;;0.00;0.00;;;;;;;;;;5030798;28;20025;-64
2022/07/17 00:54:48;;;;;;;0.00;0.00;;;;;;;;;;5034549;28;21015;-64
2022/07/17 00:57:15;;;;;;;0.00;0.00;;;;;;;;;;5020671;28;20462;-63
2022/07/17 00:59:41;;;;;;;0.00;0.00;;;;;;;;;;5035964;28;20087;-63
2022/07/17 01:02:07;;;;;;;0.00;0.00;;;;;;;;;;5033574;28;20021;-63
2022/07/17 01:04:36;;;;;;;0.00;0.00;;;;;;;;;;5033480;28;20485;-63
2022/07/17 01:07:02;;;;;;;0.38;0.38;;;;;;;;;;5034182;28;20022;-63
2022/07/17 01:09:28;;;;;;;0.00;0.00;;;;;;;;;;5032966;28;20751;-63
2022/07/17 01:11:53;;;;;;;0.00;0.00;;;;;;;;;;5032168;28;20028;-62
2022/07/17 01:14:19;;;;;;;0.28;0.28;;;;;;;;;;5037180;28;20083;-62
2022/07/17 01:16:44;;;;;;;0.00;0.00;;;;;;;;;;5037944;28;20039;-62
2022/07/17 01:19:10;;;;;;;0.00;0.00;;;;;;;;;;5034546;28;20125;-62
2022/07/17 01:21:43;;;;;;;0.00;0.00;;;;;;;;;;5037062;28;20021;-63
2022/07/17 01:24:08;;;;;;;0.00;0.00;;;;;;;;;;5035509;28;20104;-62
2022/07/17 01:26:33;;;;;;;0.00;0.00;;;;;;;;;;5037458;28;20116;-63
2022/07/17 01:28:59;;;;;;;0.00;0.00;;;;;;;;;;5033982;28;20017;-63
2022/07/17 01:31:24;;;;;;;0.00;0.00;;;;;;;;;;5028890;28;20026;-67
2022/07/17 01:33:49;;;;;;;0.00;0.00;;;;;;;;;;5034877;28;20029;-66
2022/07/17 01:36:15;;;;;;;0.00;0.00;;;;;;;;;;5028105;28;20374;-66
2022/07/17 01:38:40;;;;;;;0.00;0.00;;;;;;;;;;5023013;28;20439;-64
2022/07/17 01:41:05;;;;;;;0.00;0.00;;;;;;;;;;5032271;28;20617;-64
2022/07/17 01:43:30;;;;;;;0.00;0.00;;;;;;;;;;5030805;28;20029;-61
2022/07/17 01:45:56;;;;;;;0.00;0.00;;;;;;;;;;5031439;28;20017;-61
2022/07/17 01:48:28;;;;;;;0.00;0.00;;;;;;;;;;5031436;28;20020;-62
2022/07/17 01:50:53;;;;;;;0.00;0.00;;;;;;;;;;5029137;28;20021;-61
2022/07/17 01:53:18;;;;;;;0.00;0.00;;;;;;;;;;5029636;28;20090;-62
2022/07/17 01:55:43;;;;;;;0.00;0.00;;;;;;;;;;5030421;28;20104;-63
2022/07/17 01:58:09;;;;;;;0.00;0.00;;;;;;;;;;5030126;28;20028;-62
2022/07/17 02:00:34;;;;;;;0.00;0.00;;;;;;;;;;5029942;28;20022;-61
2022/07/17 02:02:59;;;;;;;0.00;0.00;;;;;;;;;;5029432;28;20021;-62
2022/07/17 02:05:24;;;;;;;0.00;0.00;;;;;;;;;;5028554;28;20053;-61
2022/07/17 02:07:50;;;;;;;0.00;0.00;;;;;;;;;;5030424;28;20028;-62
2022/07/17 02:10:15;;;;;;;0.00;0.00;;;;;;;;;;5028841;28;20014;-62
2022/07/17 02:12:41;;;;;;;0.00;0.00;;;;;;;;;;5029978;28;20057;-62
2022/07/17 02:15:06;;;;;;;0.00;0.00;;;;;;;;;;5028235;28;20037;-63
2022/07/17 02:17:31;;;;;;;0.00;0.00;;;;;;;;;;5030455;28;20040;-62
2022/07/17 02:19:57;;;;;;;0.00;0.00;;;;;;;;;;5028290;28;20686;-63
2022/07/17 02:22:22;;;;;;;0.00;0.00;;;;;;;;;;5030724;28;20505;-62
2022/07/17 02:24:47;;;;;;;0.35;0.35;;;;;;;;;;5027782;28;20026;-62
2022/07/17 02:27:12;;;;;;;0.00;0.00;;;;;;;;;;5030176;28;20025;-61
2022/07/17 02:29:38;;;;;;;0.00;0.00;;;;;;;;;;5028892;28;20107;-61
2022/07/17 02:32:03;;;;;;;0.00;0.00;;;;;;;;;;5031454;28;20040;-62
2022/07/17 02:34:28;;;;;;;0.00;0.00;;;;;;;;;;5030293;28;20037;-61
2022/07/17 02:36:53;;;;;;;0.00;0.00;;;;;;;;;;5029217;28;20033;-61
2022/07/17 02:39:19;;;;;;;0.00;0.00;;;;;;;;;;5030500;28;20028;-61
2022/07/17 02:41:44;;;;;;;0.00;0.00;;;;;;;;;;5028191;28;20017;-61
2022/07/17 02:44:09;;;;;;;0.00;0.00;;;;;;;;;;5029633;28;20029;-61
2022/07/17 02:46:34;;;;;;;0.00;0.00;;;;;;;;;;5031311;28;20126;-61
2022/07/17 02:49:00;;;;;;;0.10;0.10;;;;;;;;;;5028943;28;20033;-60
2022/07/17 02:51:25;;;;;;;0.00;0.00;;;;;;;;;;5030313;28;20033;-60
2022/07/17 02:53:50;;;;;;;0.00;0.00;;;;;;;;;;5031303;28;20042;-61
2022/07/17 02:56:15;;;;;;;0.00;0.00;;;;;;;;;;5028484;28;20026;-62
2022/07/17 02:58:40;;;;;;;0.00;0.00;;;;;;;;;;5029982;28;20471;-62
2022/07/17 03:01:06;;;;;;;0.88;0.80;;;;;;;;;;5029615;28;20040;-62
2022/07/17 03:03:31;;;;;;;0.00;0.00;;;;;;;;;;5029935;28;20846;-62
2022/07/17 03:05:56;;;;;;;0.00;0.00;;;;;;;;;;5029821;28;20125;-61
2022/07/17 03:08:21;;;;;;;0.00;0.00;;;;;;;;;;5016153;28;20053;-62
2022/07/17 03:10:47;;;;;;;0.00;0.00;;;;;;;;;;5029161;28;20033;-62
2022/07/17 03:13:12;;;;;;;0.00;0.00;;;;;;;;;;5020970;28;20029;-62
2022/07/17 03:15:37;;;;;;;0.00;0.00;;;;;;;;;;5024935;28;20022;-64
2022/07/17 03:18:02;;;;;;;0.30;0.30;;;;;;;;;;5027311;28;20101;-64
2022/07/17 03:20:27;;;;;;;1.45;0.75;;;;;;;;;;5026445;28;20032;-65
2022/07/17 03:22:53;;;;;;;0.00;0.00;;;;;;;;;;5025712;28;20021;-65
2022/07/17 03:25:18;;;;;;;0.00;0.00;;;;;;;;;;5026529;28;20117;-65
2022/07/17 03:27:43;;;;;;;0.00;0.00;;;;;;;;;;5027281;28;20043;-64
2022/07/17 03:30:08;;;;;;;0.00;0.00;;;;;;;;;;5028922;28;20030;-64
2022/07/17 03:32:34;;;;;;;0.00;0.00;;;;;;;;;;5030135;28;20555;-66
2022/07/17 03:35:00;;;;;;;0.00;0.00;;;;;;;;;;5031713;28;20036;-63
2022/07/17 03:37:27;;;;;;;0.00;0.00;;;;;;;;;;5028766;28;20034;-63
2022/07/17 03:39:52;;;;;;;0.00;0.00;;;;;;;;;;5026283;28;20048;-61
2022/07/17 03:42:17;;;;;;;0.00;0.00;;;;;;;;;;5034630;28;20096;-60
2022/07/17 03:44:43;;;;;;;0.00;0.00;;;;;;;;;;5031824;28;20031;-60
2022/07/17 03:47:08;;;;;;;0.00;0.00;;;;;;;;;;5032889;28;20033;-59
2022/07/17 03:49:33;;;;;;;0.00;0.00;;;;;;;;;;5031318;28;20048;-62
2022/07/17 03:51:58;;;;;;;0.00;0.00;;;;;;;;;;5034150;28;20055;-61
2022/07/17 03:54:23;;;;;;;0.00;0.00;;;;;;;;;;5031419;28;20439;-62
2022/07/17 03:56:49;;;;;;;0.00;0.00;;;;;;;;;;5032249;28;20089;-63
2022/07/17 03:59:14;;;;;;;0.00;0.00;;;;;;;;;;5030621;28;20083;-62
2022/07/17 04:01:39;;;;;;;0.00;0.00;;;;;;;;;;5030198;28;20096;-62
2022/07/17 04:04:04;;;;;;;0.00;0.00;;;;;;;;;;5030742;28;20116;-62
2022/07/17 04:06:30;;;;;;;0.00;0.00;;;;;;;;;;5028682;28;20052;-65
2022/07/17 04:08:55;;;;;;;0.00;0.00;;;;;;;;;;5032178;28;20044;-62
2022/07/17 04:11:20;;;;;;;0.00;0.00;;;;;;;;;;5029747;28;20022;-61
2022/07/17 04:13:46;;;;;;;0.00;0.00;;;;;;;;;;5031810;28;20084;-62
2022/07/17 04:16:11;;;;;;;0.00;0.00;;;;;;;;;;5031022;28;20028;-62
2022/07/17 04:18:36;;;;;;;0.00;0.00;;;;;;;;;;5032640;28;20022;-62
2022/07/17 04:21:03;;;;;;;0.00;0.00;;;;;;;;;;5032524;28;20072;-62
2022/07/17 04:23:28;;;;;;;0.00;0.00;;;;;;;;;;5033470;28;20079;-62
2022/07/17 04:25:54;;;;;;;0.00;0.00;;;;;;;;;;5036167;28;20013;-62
2022/07/17 04:28:19;;;;;;;0.00;0.00;;;;;;;;;;5033220;28;20021;-62
2022/07/17 04:30:45;;;;;;;0.00;0.00;;;;;;;;;;5030519;28;20052;-62
2022/07/17 04:33:10;;;;;;;0.00;0.00;;;;;;;;;;5025953;28;20029;-62
2022/07/17 04:35:35;;;;;;;0.00;0.00;;;;;;;;;;5030857;28;20021;-61
2022/07/17 04:38:01;;;;;;;0.00;0.00;;;;;;;;;;5032135;28;20041;-65
2022/07/17 04:40:26;;;;;;;0.00;0.00;;;;;;;;;;5012692;28;20142;-65
2022/07/17 04:42:52;;;;;;;0.00;0.00;;;;;;;;;;5032826;28;20088;-65
2022/07/17 04:45:17;;;;;;;0.00;0.00;;;;;;;;;;5032030;28;20029;-64
2022/07/17 04:47:42;;;;;;;0.00;0.00;;;;;;;;;;5033120;28;20028;-63
2022/07/17 04:50:08;;;;;;;0.00;0.00;;;;;;;;;;5032825;28;20513;-63
2022/07/17 04:52:33;;;;;;;0.00;0.00;;;;;;;;;;5033122;28;20032;-63
2022/07/17 04:54:58;;;;;;;0.00;0.00;;;;;;;;;;5032812;28;20095;-62
2022/07/17 04:57:24;;;;;;;0.00;0.00;;;;;;;;;;5032139;28;20414;-61
2022/07/17 04:59:49;;;;;;;0.00;0.00;;;;;;;;;;5032743;28;20117;-61
2022/07/17 05:02:14;;;;;;;0.15;0.15;;;;;;;;;;5031135;28;20104;-62
2022/07/17 05:04:40;;;;;;;0.00;0.00;;;;;;;;;;5030694;28;20148;-62
2022/07/17 05:07:05;;;;;;;0.00;0.00;;;;;;;;;;5032165;28;20113;-62
2022/07/17 05:09:30;;;;;;;0.00;0.00;;;;;;;;;;5032771;28;20018;-64
2022/07/17 05:11:55;;;;;;;0.00;0.00;;;;;;;;;;5014284;28;20025;-64
2022/07/17 05:14:20;;;;;;;0.00;0.00;;;;;;;;;;5034004;28;20018;-64
2022/07/17 05:16:46;;;;;;;0.00;0.00;;;;;;;;;;5031327;28;20033;-63
2022/07/17 05:19:11;;;;;;;0.00;0.00;;;;;;;;;;5034045;28;20017;-62
2022/07/17 05:21:36;;;;;;;0.00;0.00;;;;;;;;;;5031938;28;20036;-62
2022/07/17 05:24:02;;;;;;;0.00;0.00;;;;;;;;;;5032467;28;20021;-63
2022/07/17 05:26:27;;;;;;;0.00;0.00;;;;;;;;;;5030541;28;20026;-63
2022/07/17 05:28:52;;;;;;;0.00;0.00;;;;;;;;;;5032233;28;20017;-63
2022/07/17 05:31:17;;;;;;;0.00;0.00;;;;;;;;;;5027984;28;20064;-63
2022/07/17 05:33:42;;;;;;;0.00;0.00;;;;;;;;;;5032183;28;20486;-65
2022/07/17 05:36:08;;;;;;;0.00;0.00;;;;;;;;;;5032970;28;20029;-62
2022/07/17 05:38:33;;;;;;;0.10;0.10;;;;;;;;;;5032322;28;20036;-61
2022/07/17 05:40:59;;;;;;;0.00;0.00;;;;;;;;;;5033539;28;20033;-61
2022/07/17 05:43:24;;;;;;;0.00;0.00;;;;;;;;;;5032266;28;20100;-62
2022/07/17 05:45:49;;;;;;;0.17;0.10;;;;;;;;;;5033860;28;20013;-61
2022/07/17 05:48:14;;;;;;;0.00;0.00;;;;;;;;;;5031584;28;20021;-61
2022/07/17 05:50:40;;;;;;;0.00;0.00;;;;;;;;;;5034361;28;20029;-61
2022/07/17 05:53:05;;;;;;;0.00;0.00;;;;;;;;;;5028692;28;20111;-61
2022/07/17 05:55:30;;;;;;;0.00;0.00;;;;;;;;;;5010752;28;20028;-61
2022/07/17 05:57:56;;;;;;;0.00;0.00;;;;;;;;;;5030517;28;20644;-60
2022/07/17 06:00:21;;;;;;;0.00;0.00;;;;;;;;;;5027839;28;20112;-62
2022/07/17 06:02:46;;;;;;;0.00;0.00;;;;;;;;;;5028008;28;20048;-61
2022/07/17 06:05:11;;;;;;;0.00;0.00;;;;;;;;;;5030184;28;20296;-62
2022/07/17 06:07:37;;;;;;;0.00;0.00;;;;;;;;;;5033760;28;20084;-63
2022/07/17 06:10:02;;;;;;;0.00;0.00;;;;;;;;;;5033174;28;20072;-63
2022/07/17 06:12:28;;;;;;;0.93;0.88;;;;;;;;;;5031666;28;20036;-60
2022/07/17 06:14:53;;;;;;;0.00;0.00;;;;;;;;;;5031339;28;20026;-61
2022/07/17 06:17:19;;;;;;;5.82;5.63;;;;;;;;;;5029010;28;20029;-62
2022/07/17 06:19:44;;;;;;;0.00;0.00;;;;;;;;;;5024948;28;20048;-62
2022/07/17 06:22:09;;;;;;;0.00;0.00;;;;;;;;;;5031948;28;20020;-63
2022/07/17 06:24:34;;;;;;;0.83;0.40;;;;;;;;;;5030031;28;20113;-61
2022/07/17 06:27:00;;;;;;;2.90;2.87;;;;;;;;;;5032644;28;20366;-62
2022/07/17 06:29:25;;;;;;;0.00;0.00;;;;;;;;;;5027520;28;20268;-62
2022/07/17 06:31:51;;;;;;;0.00;0.00;;;;;;;;;;5030700;28;20497;-60
2022/07/17 06:34:16;;;;;;;0.10;0.10;;;;;;;;;;5032799;28;20721;-60
2022/07/17 06:36:41;;;;;;;0.00;0.00;;;;;;;;;;5030208;28;20272;-62
2022/07/17 06:39:06;;;;;;;1.00;0.47;;;;;;;;;;5035260;28;20291;-63
2022/07/17 06:41:31;;;;;;;0.00;0.00;;;;;;;;;;5030978;28;20275;-62
2022/07/17 06:43:57;;;;;;;0.00;0.00;;;;;;;;;;5031486;28;20072;-60
2022/07/17 06:46:22;;;;;;;0.00;0.00;;;;;;;;;;5029897;28;20013;-61
2022/07/17 06:48:51;;;;;;;0.00;0.00;;;;;;;;;;5033181;28;20049;-61
2022/07/17 06:51:16;;;;;;;0.00;0.00;;;;;;;;;;5031158;28;20039;-61
2022/07/17 06:53:41;;;;;;;0.00;0.00;;;;;;;;;;5035998;28;20037;-60
2022/07/17 06:56:06;;;;;;;0.00;0.00;;;;;;;;;;5034217;28;20033;-60
2022/07/17 06:58:32;;;;;;;0.00;0.00;;;;;;;;;;5027990;28;20283;-59
2022/07/17 07:00:57;;;;;;;0.00;0.00;;;;;;;;;;5033811;28;20368;-59
2022/07/17 07:03:22;;;;;;;3.97;0.73;;;;;;;;;;5031062;28;20256;-59
2022/07/17 07:05:47;;;;;;;0.03;0.03;;;;;;;;;;5028543;28;20280;-59
2022/07/17 07:08:12;;;;;;;0.00;0.00;;;;;;;;;;5030287;28;20055;-65
2022/07/17 07:10:38;;;;;;;0.00;0.00;;;;;;;;;;5031312;28;20025;-67
2022/07/17 07:13:03;;;;;;;1.35;1.25;;;;;;;;;;5032111;28;20741;-66
2022/07/17 07:15:28;;;;;;;0.00;0.00;;;;;;;;;;5029426;28;20037;-67
2022/07/17 07:17:53;;;;;;;0.00;0.00;;;;;;;;;;5031657;28;20017;-66
2022/07/17 07:20:19;;;;;;;0.00;0.00;;;;;;;;;;5031809;28;20033;-67
2022/07/17 07:22:44;;;;;;;0.15;0.15;;;;;;;;;;5031047;28;20017;-66
2022/07/17 07:25:09;;;;;;;0.00;0.00;;;;;;;;;;5030441;28;20034;-67
2022/07/17 07:27:35;;;;;;;0.45;0.10;;;;;;;;;;5029978;28;20096;-67
2022/07/17 07:30:00;;;;;;;0.00;0.00;;;;;;;;;;5030362;28;20034;-67
2022/07/17 07:32:26;;;;;;;0.00;0.00;;;;;;;;;;5030615;28;20048;-66
2022/07/17 07:34:51;;;;;;;0.00;0.00;;;;;;;;;;5032461;28;20029;-67
2022/07/17 07:37:16;;;;;;;0.00;0.00;;;;;;;;;;5033344;28;20033;-66
2022/07/17 07:39:41;;;;;;;0.00;0.00;;;;;;;;;;5030096;28;20288;-67
2022/07/17 07:42:07;;;;;;;0.00;0.00;;;;;;;;;;5031816;28;20017;-65
2022/07/17 07:44:32;;;;;;;0.00;0.00;;;;;;;;;;5032196;28;20586;-65
2022/07/17 07:46:58;;;;;;;0.45;0.45;;;;;;;;;;5032436;28;20029;-64
2022/07/17 07:49:23;;;;;;;0.00;0.00;;;;;;;;;;5031969;28;20090;-64
2022/07/17 07:51:48;;;;;;;0.00;0.00;;;;;;;;;;5030322;28;20025;-65
2022/07/17 07:54:13;;;;;;;0.00;0.00;;;;;;;;;;5013092;28;20272;-66
2022/07/17 07:56:39;;;;;;;0.00;0.00;;;;;;;;;;5030229;28;20468;-66
2022/07/17 07:59:04;;;;;;;0.00;0.00;;;;;;;;;;5033192;28;20266;-66
2022/07/17 08:01:30;;;;;;;0.00;0.00;;;;;;;;;;5031151;28;20029;-67
2022/07/17 08:03:55;;;;;;;0.00;0.00;;;;;;;;;;5032246;28;20770;-65
2022/07/17 08:06:20;;;;;;;0.00;0.00;;;;;;;;;;5027951;28;20025;-66
2022/07/17 08:08:46;;;;;;;0.00;0.00;;;;;;;;;;5031535;28;20021;-66
2022/07/17 08:11:11;;;;;;;0.00;0.00;;;;;;;;;;5028346;28;20108;-67
2022/07/17 08:13:36;;;;;;;0.00;0.00;;;;;;;;;;5030574;28;20593;-67
2022/07/17 08:16:02;;;;;;;0.00;0.00;;;;;;;;;;5033041;28;20061;-67
2022/07/17 08:18:27;;;;;;;0.00;0.00;;;;;;;;;;5029490;28;20268;-62
2022/07/17 08:20:53;;;;;;;0.00;0.00;;;;;;;;;;5031043;28;20041;-62
2022/07/17 08:23:18;;;;;;;0.00;0.00;;;;;;;;;;5031347;28;20362;-62
2022/07/17 08:25:43;;;;;;;0.00;0.00;;;;;;;;;;5030742;28;20100;-65
2022/07/17 08:28:09;;;;;;;0.00;0.00;;;;;;;;;;5033132;28;20040;-67
2022/07/17 08:30:34;;;;;;;0.00;0.00;;;;;;;;;;5030707;28;20462;-66
2022/07/17 08:33:00;;;;;;;0.30;0.30;;;;;;;;;;5033180;28;20052;-67
2022/07/17 08:35:26;;;;;;;0.00;0.00;;;;;;;;;;5030058;28;20098;-66
2022/07/17 08:37:52;;;;;;;0.00;0.00;;;;;;;;;;5031734;28;20378;-67
2022/07/17 08:40:25;;;;;;;0.00;0.00;;;;;;;;;;5030198;28;20029;-66
2022/07/17 08:42:51;;;;;;;0.30;0.30;;;;;;;;;;5014315;28;20022;-67
2022/07/17 08:45:16;;;;;;;0.00;0.00;;;;;;;;;;5032434;28;20036;-66
2022/07/17 08:47:41;;;;;;;0.00;0.00;;;;;;;;;;5031472;28;20021;-67
2022/07/17 08:50:08;;;;;;;0.00;0.00;;;;;;;;;;5031762;28;20027;-67
2022/07/17 08:52:33;;;;;;;0.00;0.00;;;;;;;;;;5029940;28;20029;-67
2022/07/17 08:54:58;;;;;;;0.00;0.00;;;;;;;;;;5032080;28;20402;-66
2022/07/17 08:57:24;;;;;;;0.00;0.00;;;;;;;;;;5030148;28;20076;-66
2022/07/17 08:59:49;;;;;;;0.00;0.00;;;;;;;;;;5032778;28;20040;-66
2022/07/17 09:02:15;;;;;;;0.00;0.00;;;;;;;;;;5030814;28;20128;-65
2022/07/17 09:04:40;;;;;;;0.00;0.00;;;;;;;;;;5026899;28;20352;-66
2022/07/17 09:07:05;;;;;;;0.00;0.00;;;;;;;;;;5011275;28;20080;-63
2022/07/17 09:09:33;;;;;;;0.00;0.00;;;;;;;;;;5011032;28;20081;-67
2022/07/17 09:11:59;;;;;;;0.00;0.00;;;;;;;;;;5012295;28;20021;-67
2022/07/17 09:14:35;;;;;;;0.00;0.00;;;;;;;;;;5012269;28;20032;-67
2022/07/17 09:17:00;;;;;;;0.00;0.00;;;;;;;;;;5012426;28;20534;-67
2022/07/17 09:19:40;;;;;;;0.00;0.00;;;;;;;;;;5010734;28;20229;-67
2022/07/17 09:22:11;;;;;;;0.00;0.00;;;;;;;;;;5012409;28;20278;-67
2022/07/17 09:25:02;;;;;;;0.00;0.00;;;;;;;;;;5011493;28;20557;-67
2022/07/17 09:27:32;;;;;;;0.00;0.00;;;;;;;;;;5006861;28;20064;-68
2022/07/17 09:30:02;;;;;;;0.00;0.00;;;;;;;;;;5011289;28;20057;-67
2022/07/17 09:32:29;;;;;;;0.68;0.65;;;;;;;;;;5011031;28;20079;-67
2022/07/17 09:34:55;;;;;;;0.00;0.00;;;;;;;;;;5009209;28;20030;-67
2022/07/17 09:37:25;;;;;;;0.00;0.00;;;;;;;;;;5009094;28;20065;-66
2022/07/17 09:39:51;;;;;;;0.00;0.00;;;;;;;;;;5012923;28;20088;-67
2022/07/17 09:42:23;;;;;;;0.00;0.00;;;;;;;;;;5010895;28;20109;-67
2022/07/17 09:44:57;;;;;;;0.00;0.00;;;;;;;;;;5009659;28;20028;-67
2022/07/17 09:47:26;;;;;;;0.85;0.85;;;;;;;;;;5011174;28;20029;-68
2022/07/17 09:49:54;;;;;;;0.00;0.00;;;;;;;;;;5004542;28;20025;-69
2022/07/17 09:52:19;;;;;;;;;;;;;;;;;;5004408;28;20030;-68
2022/07/17 09:54:47;;;;;;;0.00;0.00;;;;;;;;;;5006214;28;19988;-67
2022/07/17 09:57:13;;;;;;;0.00;0.00;;;;;;;;;;5013001;28;20425;-68
2022/07/17 09:59:39;;;;;;;0.00;0.00;;;;;;;;;;5009935;28;20065;-67
2022/07/17 10:02:05;;;;;;;0.00;0.00;;;;;;;;;;5012365;28;20443;-68
2022/07/17 10:04:30;;;;;;;0.00;0.00;;;;;;;;;;5013253;28;20040;-69
2022/07/17 10:07:08;;;;;;;0.00;0.00;;;;;;;;;;5031322;28;20104;-69
2022/07/17 10:09:37;;;;;;;0.32;0.32;;;;;;;;;;5027990;28;20027;-69
2022/07/17 10:12:03;;;;;;;0.00;0.00;;;;;;;;;;5030080;28;20053;-68
2022/07/17 10:14:28;;;;;;;0.00;0.00;;;;;;;;;;5030534;28;20067;-68
2022/07/17 10:16:53;;;;;;;1.88;1.75;;;;;;;;;;5030647;28;20025;-69
2022/07/17 10:19:20;;;;;;;0.30;0.30;;;;;;;;;;5029896;28;20033;-67
2022/07/17 10:21:56;;;;;;;0.00;0.00;;;;;;;;;;5030060;28;20033;-68
2022/07/17 10:24:24;;;;;;;0.00;0.00;;;;;;;;;;5027107;28;20470;-64
2022/07/17 10:26:50;;;;;;;0.00;0.00;;;;;;;;;;5028071;28;20108;-64
2022/07/17 11:09:02;;;;;;;0.00;0.00;;;;;;;;;;5031987;28;20121;-64
2022/07/17 11:11:40;;;;;;;0.05;0.05;;;;;;;;;;5022552;28;20041;-64
2022/07/17 11:23:13;;;;;;;0.08;0.08;;;;;;;;;;5020183;28;20497;-66
2022/07/17 11:25:38;;;;;;;0.00;0.00;;;;;;;;;;5029591;28;20013;-66
2022/07/17 11:28:04;;;;;;;0.32;0.32;;;;;;;;;;5028345;28;20911;-67
2022/07/17 11:30:29;;;;;;;0.00;0.00;;;;;;;;;;5029216;28;20045;-66
2022/07/17 11:32:55;;;;;;;0.00;0.00;;;;;;;;;;5007903;28;20029;-64
2022/07/17 11:35:21;;;;;;;0.00;0.00;;;;;;;;;;5035224;28;20275;-64
2022/07/17 11:37:50;;;;;;;0.20;0.10;;;;;;;;;;5033583;28;20071;-63
2022/07/17 11:40:15;;;;;;;0.00;0.00;;;;;;;;;;5029260;28;20092;-66
2022/07/17 11:42:41;;;;;;;0.10;0.10;;;;;;;;;;5028372;28;20036;-66
2022/07/17 11:45:07;;;;;;;0.00;0.00;;;;;;;;;;5032140;28;20788;-67
2022/07/17 11:47:32;;;;;;;0.40;0.20;;;;;;;;;;5011145;28;20128;-67
2022/07/17 11:50:05;;;;;;;0.20;0.20;;;;;;;;;;5028902;28;20083;-62
2022/07/17 11:52:39;;;;;;;2.38;2.17;;;;;;;;;;5029954;28;20117;-67
2022/07/17 11:55:05;;;;;;;0.13;0.13;;;;;;;;;;5031771;28;20096;-67
2022/07/17 11:57:40;;;;;;;0.00;0.00;;;;;;;;;;5035418;28;20021;-67
2022/07/17 12:00:15;;;;;;;0.00;0.00;;;;;;;;;;5032207;28;20033;-67
2022/07/17 12:02:41;;;;;;;0.00;0.00;;;;;;;;;;5031509;28;20500;-68
2022/07/17 12:05:06;;;;;;;0.00;0.00;;;;;;;;;;5029467;28;20022;-67
2022/07/17 12:07:39;;;;;;;0.00;0.00;;;;;;;;;;5032599;28;20485;-65
2022/07/17 12:10:14;;;;;;;0.00;0.00;;;;;;;;;;5029020;28;20090;-66
2022/07/17 12:12:39;;;;;;;0.00;0.00;;;;;;;;;;5030294;28;20048;-66
2022/07/17 12:15:06;;;;;;;0.85;0.85;;;;;;;;;;5030577;28;20030;-66
2022/07/17 12:17:38;;;;;;;0.00;0.00;;;;;;;;;;5030756;28;20029;-66
2022/07/17 12:20:05;;;;;;;0.00;0.00;;;;;;;;;;5031083;28;20040;-66
2022/07/17 12:22:31;;;;;;;0.00;0.00;;;;;;;;;;5030172;28;20029;-64
2022/07/17 12:24:56;;;;;;;0.00;0.00;;;;;;;;;;5030172;28;20025;-67
2022/07/17 12:27:23;;;;;;;0.00;0.00;;;;;;;;;;5032394;28;20048;-66
2022/07/17 12:29:49;;;;;;;0.00;0.00;;;;;;;;;;5031368;28;20021;-65
2022/07/17 12:32:15;;;;;;;0.00;0.00;;;;;;;;;;5027142;28;20014;-66
2022/07/17 12:34:45;;;;;;;0.00;0.00;;;;;;;;;;5030607;28;20293;-62
2022/07/17 12:37:14;;;;;;;0.00;0.00;;;;;;;;;;5029181;28;20033;-64
2022/07/17 12:39:39;;;;;;;;;;;;;;;;;;5031720;28;20029;-63
2022/07/17 12:42:04;;;;;;;0.17;0.17;;;;;;;;;;5026895;28;19917;-63
2022/07/17 12:44:30;;;;;;;0.00;0.00;;;;;;;;;;5029598;28;20021;-62
2022/07/17 12:46:55;;;;;;;0.00;0.00;;;;;;;;;;5028881;28;20475;-63
2022/07/17 12:49:20;;;;;;;0.00;0.00;;;;;;;;;;5029391;28;20037;-62
2022/07/17 12:51:46;;;;;;;1.35;0.38;;;;;;;;;;5032791;28;20102;-64
2022/07/17 12:54:12;;;;;;;0.28;0.28;;;;;;;;;;5030421;28;20072;-63
2022/07/17 12:56:37;;;;;;;0.38;0.38;;;;;;;;;;5032095;28;20021;-62
2022/07/17 12:59:02;;;;;;;0.00;0.00;;;;;;;;;;5030799;28;20024;-64
2022/07/17 13:01:27;;;;;;;0.00;0.00;;;;;;;;;;5031169;28;20465;-63
2022/07/17 13:03:53;;;;;;;0.00;0.00;;;;;;;;;;5031327;28;20087;-63
2022/07/17 13:06:18;;;;;;;0.00;0.00;;;;;;;;;;5029764;28;20053;-63
2022/07/17 13:08:43;;;;;;;0.00;0.00;;;;;;;;;;5030542;28;20442;-63
2022/07/17 13:11:08;;;;;;;0.00;0.00;;;;;;;;;;5028565;28;20272;-63
2022/07/17 13:13:34;;;;;;;0.00;0.00;;;;;;;;;;5030857;28;20021;-63
2022/07/17 13:15:59;;;;;;;0.00;0.00;;;;;;;;;;5030373;28;20060;-61
2022/07/17 13:18:24;;;;;;;0.00;0.00;;;;;;;;;;5029700;28;20064;-65
2022/07/17 13:20:49;;;;;;;1.10;1.10;;;;;;;;;;5030259;28;20037;-66
2022/07/17 13:23:15;;;;;;;0.00;0.00;;;;;;;;;;5029534;28;20025;-64
2022/07/17 13:25:42;;;;;;;0.00;0.00;;;;;;;;;;5029934;28;20017;-61
2022/07/17 13:28:08;;;;;;;0.00;0.00;;;;;;;;;;5028760;28;20029;-64
2022/07/17 13:30:34;;;;;;;2.08;1.55;;;;;;;;;;5030982;28;20040;-65
2022/07/17 13:32:59;;;;;;;0.75;0.75;;;;;;;;;;5028851;28;20542;-63
2022/07/17 13:35:24;;;;;;;0.00;0.00;;;;;;;;;;5030473;28;20060;-62
2022/07/17 13:37:50;;;;;;;0.30;0.30;;;;;;;;;;5028866;28;20437;-63
2022/07/17 13:40:15;;;;;;;0.00;0.00;;;;;;;;;;5029381;28;20030;-64
2022/07/17 13:42:40;;;;;;;0.00;0.00;;;;;;;;;;5029782;28;20287;-66
2022/07/17 13:45:06;;;;;;;0.43;0.43;;;;;;;;;;5014211;28;20140;-67
2022/07/17 13:47:31;;;;;;;0.00;0.00;;;;;;;;;;5029131;28;20496;-67
2022/07/17 13:49:56;;;;;;;0.00;0.00;;;;;;;;;;5029103;28;20037;-67
2022/07/17 13:52:22;;;;;;;0.00;0.00;;;;;;;;;;5030895;28;20032;-65
2022/07/17 13:54:47;;;;;;;0.00;0.00;;;;;;;;;;5028974;28;20040;-66
2022/07/17 13:57:12;;;;;;;0.00;0.00;;;;;;;;;;5027953;28;20033;-66
2022/07/17 13:59:37;;;;;;;0.00;0.00;;;;;;;;;;5028397;28;20032;-66
2022/07/17 14:02:04;;;;;;;2.17;1.77;;;;;;;;;;5029991;28;20057;-66
2022/07/17 14:04:29;;;;;;;0.00;0.00;;;;;;;;;;5030030;28;20028;-67
2022/07/17 14:06:55;;;;;;;0.00;0.00;;;;;;;;;;5028523;28;20095;-66
2022/07/17 14:09:20;;;;;;;0.00;0.00;;;;;;;;;;5028420;28;20366;-66
2022/07/17 14:11:45;;;;;;;0.00;0.00;;;;;;;;;;5029303;28;20037;-66
2022/07/17 14:14:11;;;;;;;0.00;0.00;;;;;;;;;;5010659;28;20554;-66
2022/07/17 14:16:36;;;;;;;0.00;0.00;;;;;;;;;;5028764;28;20036;-68
2022/07/17 14:19:01;;;;;;;0.00;0.00;;;;;;;;;;5030039;28;20017;-67
2022/07/17 14:21:36;;;;;;;0.00;0.00;;;;;;;;;;5029523;28;20630;-66
2022/07/17 14:24:02;;;;;;;0.00;0.00;;;;;;;;;;5027511;28;20031;-66
2022/07/17 14:26:27;;;;;;;0.08;0.08;;;;;;;;;;5026594;28;20083;-66
2022/07/17 14:28:52;;;;;;;0.00;0.00;;;;;;;;;;5026000;28;20017;-65
2022/07/17 14:31:18;;;;;;;0.00;0.00;;;;;;;;;;5027313;28;20127;-67
2022/07/17 14:33:43;;;;;;;0.00;0.00;;;;;;;;;;5029121;28;20108;-66
2022/07/17 14:36:09;;;;;;;0.00;0.00;;;;;;;;;;5027819;28;20105;-66
2022/07/17 14:38:35;;;;;;;0.00;0.00;;;;;;;;;;5029848;28;20026;-66
2022/07/17 14:41:00;;;;;;;0.00;0.00;;;;;;;;;;5028410;28;20037;-67
2022/07/17 14:43:25;;;;;;;0.00;0.00;;;;;;;;;;5029467;28;20467;-66
2022/07/17 14:45:51;;;;;;;0.00;0.00;;;;;;;;;;5027390;28;20041;-67
2022/07/17 14:48:16;;;;;;;7.65;1.80;;;;;;;;;;5029560;28;20014;-66
2022/07/17 14:50:41;;;;;;;0.00;0.00;;;;;;;;;;5029160;28;20092;-66
2022/07/17 14:53:07;;;;;;;0.00;0.00;;;;;;;;;;5028759;28;20458;-67
2022/07/17 14:55:32;;;;;;;0.00;0.00;;;;;;;;;;5011328;28;20025;-67
2022/07/17 14:57:57;;;;;;;0.00;0.00;;;;;;;;;;5028270;28;20124;-67
2022/07/17 15:00:22;;;;;;;0.00;0.00;;;;;;;;;;5026588;28;20025;-66
2022/07/17 15:02:48;;;;;;;0.00;0.00;;;;;;;;;;5028346;28;20268;-67
2022/07/17 15:05:13;;;;;;;0.00;0.00;;;;;;;;;;5029764;28;20017;-66
2022/07/17 15:07:38;;;;;;;0.03;0.03;;;;;;;;;;5026655;28;20053;-66
2022/07/17 15:10:04;;;;;;;0.20;0.20;;;;;;;;;;5027897;28;20064;-66
2022/07/17 15:12:29;;;;;;;0.00;0.00;;;;;;;;;;5027947;28;20025;-65
2022/07/17 15:14:54;;;;;;;0.00;0.00;;;;;;;;;;5027691;28;20026;-66
2022/07/17 15:17:19;;;;;;;0.00;0.00;;;;;;;;;;5028608;28;20108;-65
2022/07/17 15:19:45;;;;;;;0.10;0.03;;;;;;;;;;5029284;28;20341;-66
2022/07/17 15:22:10;;;;;;;0.43;0.43;;;;;;;;;;5010538;28;20022;-66
2022/07/17 15:24:35;;;;;;;0.00;0.00;;;;;;;;;;5029406;28;20028;-66